createdAt,value
2018-09-27T00:00:36.146Z,2.73
2018-09-27T00:03:05.898Z,3.00
2018-09-27T00:05:35.702Z,2.80
2018-09-27T00:08:06.010Z,3.30
2018-09-27T00:10:35.646Z,3.30
2018-09-27T00:13:05.958Z,2.97
2018-09-27T00:15:35.398Z,2.83
2018-09-27T00:18:04.579Z,2.53
2018-09-27T00:20:34.626Z,3.00
2018-09-27T00:23:05.286Z,3.10
2018-09-27T00:25:34.665Z,2.63
2018-09-27T00:28:04.058Z,2.60
2018-09-27T00:30:33.350Z,2.67
2018-09-27T00:33:03.346Z,2.43
2018-09-27T00:35:32.905Z,2.80
2018-09-27T00:38:02.957Z,2.97
2018-09-27T00:40:32.717Z,2.83
2018-09-27T00:43:02.158Z,3.13
2018-09-27T00:45:31.416Z,3.03
2018-09-27T00:48:01.698Z,3.00
2018-09-27T00:50:32.277Z,2.77
2018-09-27T00:53:02.069Z,2.40
2018-09-27T00:55:31.121Z,2.63
2018-09-27T00:58:00.202Z,2.33
2018-09-27T01:00:30.213Z,2.40
2018-09-27T01:03:04.616Z,2.47
2018-09-27T01:05:34.766Z,2.10
2018-09-27T01:08:04.321Z,2.40
2018-09-27T01:10:33.866Z,3.00
2018-09-27T01:13:02.935Z,3.00
2018-09-27T01:15:31.999Z,2.97
2018-09-27T01:18:01.062Z,2.47
2018-09-27T01:20:31.507Z,3.20
2018-09-27T01:23:00.702Z,2.43
2018-09-27T01:25:30.240Z,2.73
2018-09-27T01:27:59.466Z,2.20
2018-09-27T01:30:30.137Z,2.87
2018-09-27T01:32:59.257Z,2.40
2018-09-27T01:35:28.424Z,2.27
2018-09-27T01:37:57.770Z,2.63
2018-09-27T01:40:28.393Z,2.70
2018-09-27T01:42:57.473Z,2.33
2018-09-27T01:45:26.685Z,2.93
2018-09-27T01:47:56.578Z,2.30
2018-09-27T01:50:25.972Z,2.37
2018-09-27T01:52:55.018Z,2.30
2018-09-27T01:55:24.090Z,2.20
2018-09-27T01:57:54.067Z,2.53
2018-09-27T02:00:24.179Z,2.30
2018-09-27T02:02:53.847Z,2.57
2018-09-27T02:05:23.666Z,2.90
2018-09-27T02:07:53.652Z,2.43
2018-09-27T02:10:22.854Z,2.27
2018-09-27T02:12:52.699Z,2.13
2018-09-27T02:15:21.821Z,2.40
2018-09-27T02:17:51.832Z,2.30
2018-09-27T02:20:21.033Z,2.63
2018-09-27T02:22:50.490Z,2.43
2018-09-27T02:25:20.061Z,2.90
2018-09-27T02:27:49.541Z,2.20
2018-09-27T02:30:18.637Z,2.23
2018-09-27T02:32:48.160Z,2.03
2018-09-27T02:35:17.650Z,2.50
2018-09-27T02:37:47.255Z,2.80
2018-09-27T02:40:16.941Z,2.33
2018-09-27T02:42:47.567Z,2.33
2018-09-27T02:45:16.652Z,1.87
2018-09-27T02:47:46.282Z,2.20
2018-09-27T02:50:15.869Z,2.30
2018-09-27T02:52:46.107Z,2.00
2018-09-27T02:55:15.678Z,2.13
2018-09-27T02:57:45.198Z,2.40
2018-09-27T03:00:15.461Z,1.83
2018-09-27T03:02:45.083Z,2.30
2018-09-27T03:05:14.858Z,2.43
2018-09-27T03:07:45.660Z,2.03
2018-09-27T03:10:15.280Z,2.57
2018-09-27T03:12:45.377Z,1.90
2018-09-27T03:18:09.083Z,2.00
2018-09-27T03:20:39.031Z,2.43
2018-09-27T03:23:08.965Z,1.93
2018-09-27T03:25:39.182Z,1.80
2018-09-27T03:28:08.625Z,2.47
2018-09-27T03:30:38.194Z,2.00
2018-09-27T03:33:07.762Z,2.47
2018-09-27T03:35:37.202Z,2.07
2018-09-27T03:38:06.480Z,1.90
2018-09-27T03:40:35.813Z,2.10
2018-09-27T03:43:05.855Z,2.40
2018-09-27T03:45:34.982Z,2.07
2018-09-27T03:48:04.708Z,1.90
2018-09-27T03:50:33.816Z,2.23
2018-09-27T03:53:03.920Z,2.50
2018-09-27T03:55:33.153Z,2.40
2018-09-27T03:58:02.448Z,2.13
2018-09-27T04:00:33.383Z,2.90
2018-09-27T04:03:02.612Z,2.90
2018-09-27T04:05:33.447Z,2.23
2018-09-27T04:08:03.079Z,2.57
2018-09-27T04:10:33.635Z,1.77
2018-09-27T04:13:03.323Z,2.30
2018-09-27T04:15:32.385Z,1.87
2018-09-27T04:18:01.758Z,2.17
2018-09-27T04:20:31.639Z,2.10
2018-09-27T04:23:01.833Z,2.33
2018-09-27T04:25:32.379Z,2.17
2018-09-27T04:28:02.242Z,2.40
2018-09-27T04:30:32.497Z,2.10
2018-09-27T04:33:01.639Z,2.40
2018-09-27T04:35:31.443Z,1.80
2018-09-27T04:38:01.034Z,2.33
2018-09-27T04:40:30.422Z,2.57
2018-09-27T04:42:59.585Z,2.70
2018-09-27T04:45:28.724Z,3.23
2018-09-27T04:47:58.448Z,3.33
2018-09-27T04:50:28.189Z,2.43
2018-09-27T04:52:59.485Z,2.30
2018-09-27T04:55:29.265Z,2.23
2018-09-27T04:57:58.379Z,2.10
2018-09-27T05:00:28.014Z,2.50
2018-09-27T05:03:27.881Z,2.40
2018-09-27T05:05:58.196Z,2.10
2018-09-27T05:08:30.550Z,1.83
2018-09-27T05:11:01.406Z,2.83
2018-09-27T05:13:31.217Z,2.00
2018-09-27T05:16:01.540Z,3.57
2018-09-27T05:18:32.477Z,5.90
2018-09-27T05:21:02.323Z,5.30
2018-09-27T05:23:31.870Z,4.20
2018-09-27T05:26:01.445Z,3.70
2018-09-27T05:28:31.543Z,3.63
2018-09-27T05:31:01.250Z,3.97
2018-09-27T05:33:31.785Z,3.70
2018-09-27T05:36:00.837Z,4.27
2018-09-27T05:38:30.236Z,4.00
2018-09-27T05:41:00.987Z,4.03
2018-09-27T05:43:31.232Z,3.67
2018-09-27T05:46:00.769Z,4.17
2018-09-27T05:48:29.829Z,3.97
2018-09-27T05:51:00.167Z,3.80
2018-09-27T05:53:29.406Z,3.77
2018-09-27T05:56:00.142Z,3.97
2018-09-27T05:58:30.300Z,3.30
2018-09-27T06:01:00.243Z,4.13
2018-09-27T06:03:29.817Z,4.13
2018-09-27T06:05:59.790Z,4.27
2018-09-27T06:08:29.256Z,3.47
2018-09-27T06:10:59.537Z,2.70
2018-09-27T06:13:29.300Z,3.20
2018-09-27T06:15:58.478Z,3.27
2018-09-27T06:18:29.239Z,2.93
2018-09-27T06:20:58.820Z,3.30
2018-09-27T06:23:28.018Z,2.93
2018-09-27T06:25:57.183Z,2.97
2018-09-27T06:28:26.211Z,2.97
2018-09-27T06:30:56.082Z,3.00
2018-09-27T06:33:25.258Z,3.47
2018-09-27T06:35:54.471Z,2.77
2018-09-27T06:38:24.347Z,2.57
2018-09-27T06:40:54.389Z,2.97
2018-09-27T06:43:23.841Z,3.10
2018-09-27T06:45:52.922Z,2.67
2018-09-27T06:48:22.118Z,2.83
2018-09-27T06:50:51.854Z,2.70
2018-09-27T06:53:20.949Z,2.43
2018-09-27T06:55:50.088Z,2.80
2018-09-27T06:58:19.333Z,3.00
2018-09-27T07:00:49.204Z,2.70
2018-09-27T07:03:18.611Z,2.70
2018-09-27T07:05:48.678Z,2.40
2018-09-27T07:08:22.083Z,2.50
2018-09-27T07:10:55.824Z,2.70
2018-09-27T07:13:25.010Z,3.30
2018-09-27T07:15:55.945Z,3.67
2018-09-27T07:18:25.308Z,3.07
2018-09-27T07:20:56.249Z,3.30
2018-09-27T07:23:27.096Z,3.63
2018-09-27T07:25:57.110Z,2.57
2018-09-27T07:28:26.959Z,2.93
2018-09-27T07:30:56.100Z,3.10
2018-09-27T07:33:25.219Z,3.20
2018-09-27T07:35:54.916Z,4.10
2018-09-27T07:38:24.100Z,13.53
2018-09-27T07:40:53.750Z,35.33
2018-09-27T07:43:22.822Z,54.30
2018-09-27T07:45:51.971Z,65.17
2018-09-27T07:48:21.407Z,96.67
2018-09-27T07:50:50.440Z,102.67
2018-09-27T07:53:20.492Z,95.53
2018-09-27T07:55:50.167Z,112.88
2018-09-27T07:58:19.886Z,96.02
2018-09-27T08:00:49.466Z,105.85
2018-09-27T08:03:19.023Z,103.85
2018-09-27T08:05:48.885Z,93.60
2018-09-27T08:08:19.266Z,94.00
2018-09-27T08:10:49.702Z,87.37
2018-09-27T08:13:19.002Z,89.85
2018-09-27T08:15:48.322Z,92.47
2018-09-27T08:18:18.026Z,92.37
2018-09-27T08:20:48.439Z,102.67
2018-09-27T08:23:17.576Z,83.97
2018-09-27T08:25:46.709Z,76.42
2018-09-27T08:28:17.261Z,79.00
2018-09-27T08:30:46.459Z,77.62
2018-09-27T08:33:16.455Z,84.17
2018-09-27T08:35:46.590Z,72.60
2018-09-27T08:38:16.787Z,85.35
2018-09-27T08:40:46.524Z,83.62
2018-09-27T08:43:15.649Z,84.67
2018-09-27T08:45:45.670Z,78.97
2018-09-27T08:48:15.483Z,82.00
2018-09-27T08:50:44.957Z,81.32
2018-09-27T08:53:14.210Z,78.92
2018-09-27T08:55:43.505Z,77.10
2018-09-27T08:58:13.187Z,78.30
2018-09-27T09:00:42.853Z,75.25
2018-09-27T09:03:13.147Z,71.05
2018-09-27T09:05:43.072Z,71.72
2018-09-27T09:08:12.995Z,66.85
2018-09-27T09:10:42.438Z,61.33
2018-09-27T09:13:14.022Z,67.12
2018-09-27T09:15:43.668Z,60.35
2018-09-27T09:18:13.141Z,59.77
2018-09-27T09:20:43.133Z,59.10
2018-09-27T09:23:12.262Z,56.88
2018-09-27T09:25:41.657Z,56.95
2018-09-27T09:28:11.131Z,51.95
2018-09-27T09:30:41.778Z,50.85
2018-09-27T09:33:12.311Z,49.60
2018-09-27T09:35:41.706Z,47.38
2018-09-27T09:38:11.466Z,45.38
2018-09-27T09:40:41.723Z,43.75
2018-09-27T09:43:11.429Z,42.05
2018-09-27T09:45:41.056Z,41.00
2018-09-27T09:48:10.731Z,38.63
2018-09-27T09:50:40.591Z,39.13
2018-09-27T09:53:10.338Z,37.23
2018-09-27T09:55:40.384Z,36.17
2018-09-27T09:58:10.895Z,32.65
2018-09-27T10:00:40.706Z,31.85
2018-09-27T10:03:10.062Z,32.67
2018-09-27T10:05:40.216Z,32.05
2018-09-27T10:08:10.406Z,31.40
2018-09-27T10:10:39.588Z,29.95
2018-09-27T10:13:08.856Z,31.70
2018-09-27T10:15:38.089Z,28.70
2018-09-27T10:18:08.934Z,29.20
2018-09-27T10:20:40.277Z,27.85
2018-09-27T10:23:10.365Z,27.85
2018-09-27T10:25:41.033Z,25.82
2018-09-27T10:28:10.285Z,23.70
2018-09-27T10:30:40.149Z,23.47
2018-09-27T10:33:09.614Z,24.05
2018-09-27T10:35:39.733Z,24.43
2018-09-27T10:38:09.037Z,24.32
2018-09-27T10:40:38.727Z,22.22
2018-09-27T10:43:09.523Z,21.23
2018-09-27T10:45:38.751Z,21.17
2018-09-27T10:48:08.977Z,19.55
2018-09-27T10:50:38.966Z,19.90
2018-09-27T10:53:08.353Z,19.00
2018-09-27T10:55:38.115Z,17.15
2018-09-27T10:58:08.145Z,17.85
2018-09-27T11:00:38.140Z,17.42
2018-09-27T11:03:07.263Z,16.77
2018-09-27T11:05:37.244Z,16.42
2018-09-27T11:08:07.613Z,15.65
2018-09-27T11:10:37.411Z,15.43
2018-09-27T11:13:06.718Z,15.45
2018-09-27T11:15:35.902Z,14.28
2018-09-27T11:18:05.827Z,15.18
2018-09-27T11:20:36.315Z,14.87
2018-09-27T11:23:05.840Z,15.00
2018-09-27T11:25:35.126Z,13.93
2018-09-27T11:28:04.602Z,13.70
2018-09-27T11:30:35.963Z,13.70
2018-09-27T11:33:05.182Z,13.18
2018-09-27T11:35:34.399Z,12.73
2018-09-27T11:38:26.168Z,12.60
2018-09-27T11:40:57.113Z,11.63
2018-09-27T11:43:27.716Z,10.88
2018-09-27T11:45:58.462Z,11.50
2018-09-27T11:48:33.363Z,12.00
2018-09-27T11:51:10.243Z,11.12
2018-09-27T11:53:41.922Z,10.58
2018-09-27T11:56:17.338Z,10.15
2018-09-27T11:58:58.779Z,10.48
2018-09-27T12:01:33.190Z,9.78
2018-09-27T12:04:12.078Z,9.65
2018-09-27T12:06:47.542Z,10.35
2018-09-27T12:09:29.685Z,9.25
2018-09-27T12:12:01.202Z,9.25
2018-09-27T12:14:36.441Z,9.15
2018-09-27T12:17:10.566Z,9.53
2018-09-27T12:19:48.369Z,9.50
2018-09-27T12:22:20.971Z,10.13
2018-09-27T12:25:16.835Z,10.03
2018-09-27T12:27:51.712Z,10.08
2018-09-27T12:30:25.041Z,9.80
2018-09-27T12:33:02.038Z,9.28
2018-09-27T12:35:34.050Z,10.40
2018-09-27T12:38:11.806Z,9.20
2018-09-27T12:41:01.750Z,9.75
2018-09-27T12:43:51.742Z,8.55
2018-09-27T12:46:26.988Z,7.92
2018-09-27T12:49:23.331Z,9.13
2018-09-27T12:52:04.765Z,7.60
2018-09-27T12:54:40.807Z,7.83
2018-09-27T12:57:16.512Z,7.90
2018-09-27T12:59:52.118Z,7.03
2018-09-27T13:02:27.451Z,8.18
2018-09-27T13:04:59.283Z,6.47
2018-09-27T13:07:31.278Z,6.92
2018-09-27T13:10:01.343Z,7.08
2018-09-27T13:12:46.550Z,6.12
2018-09-27T13:15:38.136Z,6.87
2018-09-27T13:18:16.357Z,7.00
2018-09-27T13:20:48.904Z,6.75
2018-09-27T13:23:33.771Z,6.47
2018-09-27T13:26:06.202Z,6.85
2018-09-27T13:28:41.514Z,5.90
2018-09-27T13:31:20.819Z,6.00
2018-09-27T13:33:53.620Z,5.75
2018-09-27T13:36:29.876Z,5.80
2018-09-27T13:39:00.925Z,6.05
2018-09-27T13:41:33.212Z,5.42
2018-09-27T13:44:07.047Z,5.47
2018-09-27T13:46:40.319Z,5.40
2018-09-27T13:49:14.295Z,5.83
2018-09-27T13:51:47.820Z,5.35
2018-09-27T13:54:19.047Z,5.72
2018-09-27T13:57:01.613Z,4.87
2018-09-27T13:59:35.812Z,5.00
2018-09-27T14:02:11.328Z,5.22
2018-09-27T14:04:43.970Z,4.58
2018-09-27T14:07:18.407Z,4.90
2018-09-27T14:09:54.690Z,5.08
2018-09-27T14:12:25.756Z,4.85
2018-09-27T14:15:03.207Z,4.78
2018-09-27T14:17:41.230Z,5.12
2018-09-27T14:20:31.127Z,4.80
2018-09-27T14:23:03.234Z,4.50
2018-09-27T14:25:40.709Z,4.65
2018-09-27T14:28:18.114Z,4.37
2018-09-27T14:31:02.113Z,4.65
2018-09-27T14:33:37.264Z,4.62
2018-09-27T14:36:17.702Z,3.75
2018-09-27T14:38:52.901Z,3.75
2018-09-27T14:41:27.351Z,4.35
2018-09-27T14:44:11.543Z,3.90
2018-09-27T14:46:44.255Z,4.75
2018-09-27T14:49:23.853Z,4.15
2018-09-27T14:52:20.782Z,3.75
2018-09-27T14:54:55.087Z,3.22
2018-09-27T14:57:33.705Z,4.08
2018-09-27T15:03:16.498Z,3.80
2018-09-27T15:05:53.618Z,3.90
2018-09-27T15:08:27.559Z,4.03
2018-09-27T15:11:03.671Z,3.62
2018-09-27T15:13:33.790Z,3.98
2018-09-27T15:16:07.221Z,3.60
2018-09-27T15:18:48.219Z,3.75
2018-09-27T15:21:23.713Z,3.80
2018-09-27T15:24:00.595Z,3.58
2018-09-27T15:26:37.654Z,3.27
2018-09-27T15:29:09.164Z,3.55
2018-09-27T15:31:47.162Z,3.15
2018-09-27T15:34:18.795Z,3.27
2018-09-27T15:36:53.895Z,3.17
2018-09-27T15:39:36.380Z,3.80
2018-09-27T15:42:23.757Z,3.22
2018-09-27T15:45:06.132Z,3.72
2018-09-27T15:48:08.511Z,3.52
2018-09-27T15:50:49.272Z,3.42
2018-09-27T15:53:38.942Z,3.83
2018-09-27T15:56:12.363Z,3.45
2018-09-27T15:58:45.711Z,3.00
2018-09-27T16:01:22.010Z,3.20
2018-09-27T16:03:59.905Z,3.05
2018-09-27T16:06:37.656Z,2.98
2018-09-27T16:09:16.711Z,3.10
2018-09-27T16:11:48.565Z,2.83
2018-09-27T16:14:23.794Z,3.50
2018-09-27T16:17:04.643Z,3.40
2018-09-27T16:19:44.504Z,3.02
2018-09-27T16:22:18.970Z,3.25
2018-09-27T16:27:37.922Z,3.27
2018-09-27T16:30:16.100Z,3.10
2018-09-27T16:32:49.729Z,3.12
2018-09-27T16:35:35.913Z,4.03
2018-09-27T16:38:19.729Z,3.30
2018-09-27T16:41:01.401Z,3.22
2018-09-27T16:46:15.919Z,2.92
2018-09-27T16:48:55.877Z,2.85
2018-09-27T16:51:32.453Z,3.25
2018-09-27T16:54:19.098Z,3.50
2018-09-27T16:57:15.219Z,2.90
2018-09-27T16:59:59.769Z,3.35
2018-09-27T17:02:52.018Z,2.98
2018-09-27T17:05:36.223Z,4.22
2018-09-27T17:11:15.284Z,2.95
2018-09-27T17:13:58.526Z,3.83
2018-09-27T17:16:52.013Z,3.22
2018-09-27T17:19:32.535Z,3.90
2018-09-27T17:28:08.700Z,4.05
2018-09-27T17:30:46.162Z,4.28
2018-09-27T17:33:23.996Z,4.92
2018-09-27T17:38:47.845Z,4.55
2018-09-27T17:41:23.921Z,4.83
2018-09-27T17:44:13.606Z,4.62
2018-09-27T17:46:50.100Z,4.17
2018-09-27T17:52:13.457Z,4.35
2018-09-27T17:57:58.999Z,4.15
2018-09-27T18:00:40.784Z,5.00
2018-09-27T18:03:26.656Z,4.28
2018-09-27T18:06:14.081Z,5.17
2018-09-27T18:08:48.447Z,4.97
2018-09-27T18:11:43.691Z,5.05
2018-09-27T18:14:21.128Z,4.33
2018-09-27T18:17:02.372Z,4.40
2018-09-27T18:22:43.817Z,4.75
2018-09-27T18:25:24.850Z,4.62
2018-09-27T18:28:03.930Z,4.35
2018-09-27T18:30:41.331Z,4.10
2018-09-27T18:33:18.975Z,4.10
2018-09-27T18:41:42.015Z,4.10
2018-09-27T18:50:12.342Z,4.25
2018-09-27T18:53:02.001Z,4.35
2018-09-27T18:55:49.421Z,4.00
2018-09-27T18:58:18.617Z,3.72
2018-09-27T19:00:48.743Z,4.15
2018-09-27T19:03:18.462Z,3.87
2018-09-27T19:05:48.775Z,4.22
2018-09-27T19:08:19.411Z,4.90
2018-09-27T19:10:49.370Z,4.20
2018-09-27T19:13:18.494Z,4.10
2018-09-27T19:15:49.015Z,3.30
2018-09-27T19:18:18.538Z,4.00
2018-09-27T19:20:48.873Z,3.98
2018-09-27T19:23:18.348Z,3.77
2018-09-27T19:25:47.770Z,3.55
2018-09-27T19:28:17.310Z,4.37
2018-09-27T19:30:46.454Z,3.72
2018-09-27T19:33:16.315Z,3.98
2018-09-27T19:35:45.955Z,3.62
2018-09-27T19:38:15.176Z,3.70
2018-09-27T19:40:44.352Z,4.47
2018-09-27T19:43:14.400Z,3.62
2018-09-27T19:45:43.653Z,3.65
2018-09-27T19:48:12.765Z,3.90
2018-09-27T19:50:43.161Z,3.30
2018-09-27T19:53:12.547Z,3.62
2018-09-27T19:55:42.134Z,3.90
2018-09-27T19:58:13.933Z,3.85
2018-09-27T20:00:43.135Z,3.45
2018-09-27T20:03:13.818Z,3.12
2018-09-27T20:05:43.479Z,3.67
2018-09-27T20:08:13.245Z,2.95
2018-09-27T20:10:42.443Z,3.60
2018-09-27T20:13:12.278Z,3.50
2018-09-27T20:15:42.506Z,3.72
2018-09-27T20:18:13.296Z,3.75
2018-09-27T20:20:43.375Z,3.10
2018-09-27T20:23:12.603Z,3.42
2018-09-27T20:25:41.750Z,2.72
2018-09-27T20:28:11.169Z,3.80
2018-09-27T20:30:41.646Z,3.60
2018-09-27T20:33:11.174Z,3.67
2018-09-27T20:35:41.131Z,3.93
2018-09-27T20:38:10.330Z,2.97
2018-09-27T20:40:39.658Z,3.22
2018-09-27T20:43:09.609Z,2.92
2018-09-27T20:45:39.921Z,3.20
2018-09-27T20:48:09.141Z,3.15
2018-09-27T20:50:38.363Z,3.90
2018-09-27T20:53:07.957Z,3.05
2018-09-27T20:55:37.219Z,3.40
2018-09-27T20:58:06.972Z,2.98
2018-09-27T21:00:36.918Z,3.60
2018-09-27T21:03:06.446Z,3.00
2018-09-27T21:05:36.330Z,3.42
2018-09-27T21:08:06.086Z,2.90
2018-09-27T21:10:35.462Z,3.85
2018-09-27T21:13:05.208Z,3.20
2018-09-27T21:15:34.486Z,3.72
2018-09-27T21:18:03.689Z,2.92
2018-09-27T21:20:33.814Z,3.20
2018-09-27T21:23:03.054Z,3.43
2018-09-27T21:25:32.823Z,3.65
2018-09-27T21:28:05.011Z,3.20
2018-09-27T21:30:35.265Z,2.90
2018-09-27T21:33:04.350Z,3.47
2018-09-27T21:35:34.716Z,3.52
2018-09-27T21:38:04.572Z,3.67
2018-09-27T21:40:33.825Z,3.25
2018-09-27T21:43:03.366Z,2.77
2018-09-27T21:45:32.481Z,2.83
2018-09-27T21:48:02.340Z,2.87
2018-09-27T21:50:31.900Z,2.85
2018-09-27T21:53:02.559Z,3.50
2018-09-27T21:55:31.644Z,3.40
2018-09-27T21:58:01.507Z,2.90
2018-09-27T22:00:30.744Z,2.92
2018-09-27T22:03:01.389Z,2.90
2018-09-27T22:05:31.662Z,2.73
2018-09-27T22:08:01.479Z,3.00
2018-09-27T22:10:31.998Z,3.10
2018-09-27T22:13:01.734Z,2.90
2018-09-27T22:15:30.889Z,3.20
2018-09-27T22:18:00.403Z,3.53
2018-09-27T22:20:30.118Z,2.77
2018-09-27T22:22:59.666Z,3.30
2018-09-27T22:25:29.509Z,3.40
2018-09-27T22:27:59.163Z,3.40
2018-09-27T22:30:29.659Z,2.80
2018-09-27T22:32:58.747Z,2.90
2018-09-27T22:35:29.890Z,3.30
2018-09-27T22:37:59.203Z,3.10
2018-09-27T22:40:28.477Z,3.30
2018-09-27T22:42:57.541Z,2.87
2018-09-27T22:45:27.270Z,3.33
2018-09-27T22:47:56.500Z,3.47
2018-09-27T22:50:26.728Z,3.60
2018-09-27T22:52:56.887Z,3.50
2018-09-27T22:55:26.674Z,3.52
2018-09-27T22:57:56.419Z,3.40
2018-09-27T23:00:27.103Z,3.40
2018-09-27T23:02:57.321Z,3.15
2018-09-27T23:05:27.174Z,3.47
2018-09-27T23:07:57.438Z,3.05
2018-09-27T23:10:27.575Z,3.08
2018-09-27T23:12:56.670Z,3.17
2018-09-27T23:15:27.133Z,3.27
2018-09-27T23:17:56.506Z,3.37
2018-09-27T23:20:26.780Z,3.73
2018-09-27T23:22:55.837Z,3.33
2018-09-27T23:25:25.438Z,3.00
2018-09-27T23:27:55.126Z,3.47
2018-09-27T23:30:24.418Z,2.60
2018-09-27T23:32:54.796Z,3.53
2018-09-27T23:35:24.469Z,3.90
2018-09-27T23:37:53.721Z,3.93
2018-09-27T23:40:22.836Z,3.10
2018-09-27T23:42:51.989Z,3.62
2018-09-27T23:45:21.820Z,3.57
2018-09-27T23:47:52.302Z,3.33
2018-09-27T23:50:21.382Z,3.90
2018-09-27T23:52:51.067Z,3.07
2018-09-27T23:55:20.610Z,3.23
2018-09-27T23:57:49.757Z,3.90
